DAL1510 KATL-KMIA
Flight info
| Callsign | DAL1510 |
|---|---|
| Flight time | 1h 19m |
| Altitude | 40000 |
| Route | BANNG3 LUCKK HONID FROGZ5 |
| Aircraft | MD11/H-SDE1E2E3FGHIJ2J3J4J5M1RWXY/LB1D1 |
Departure
| Time | 2026-05-05 17:00 |
|---|---|
| Airport | Hartsfield Jackson Atlanta International Airport (KATL) |
Arrival
| Time | 2026-05-05 18:19 |
|---|---|
| Airport | Miami International Airport (KMIA) |
| Time | Latitude | Longitude | Altitude | Speed | Heading |
|---|---|---|---|---|---|
| 2026-05-05 16:41 | 33.64007 | -84.42635 | 1043 ft | 0 kts | 91° |
| 2026-05-05 16:48 | 33.64007 | -84.42659 | 1043 ft | 4 kts | 91° |
| 2026-05-05 16:48 | 33.64008 | -84.42691 | 1043 ft | 4 kts | 91° |
| 2026-05-05 16:48 | 33.64008 | -84.42720 | 1044 ft | 4 kts | 97° |
| 2026-05-05 16:48 | 33.64010 | -84.42738 | 1043 ft | 4 kts | 153° |
| 2026-05-05 16:49 | 33.64025 | -84.42740 | 1043 ft | 4 kts | 191° |
| 2026-05-05 16:49 | 33.64049 | -84.42735 | 1043 ft | 1 kts | 180° |
| 2026-05-05 16:49 | 33.64050 | -84.42735 | 1043 ft | 0 kts | 180° |
| 2026-05-05 16:52 | 33.64048 | -84.42735 | 1043 ft | 1 kts | 180° |
| 2026-05-05 16:53 | 33.64036 | -84.42735 | 1043 ft | 4 kts | 180° |
| 2026-05-05 16:53 | 33.63979 | -84.42735 | 1043 ft | 12 kts | 180° |
| 2026-05-05 16:53 | 33.63877 | -84.42735 | 1043 ft | 15 kts | 180° |
| 2026-05-05 16:53 | 33.63773 | -84.42736 | 1043 ft | 15 kts | 180° |
| 2026-05-05 16:54 | 33.63690 | -84.42734 | 1043 ft | 7 kts | 171° |
| 2026-05-05 16:54 | 33.63670 | -84.42714 | 1043 ft | 3 kts | 128° |
| 2026-05-05 16:54 | 33.63662 | -84.42690 | 1043 ft | 3 kts | 103° |
| 2026-05-05 16:55 | 33.63658 | -84.42595 | 1043 ft | 7 kts | 89° |
| 2026-05-05 16:55 | 33.63657 | -84.42526 | 1043 ft | 9 kts | 91° |
| 2026-05-05 16:55 | 33.63656 | -84.42440 | 1044 ft | 11 kts | 90° |
| 2026-05-05 16:55 | 33.63656 | -84.42339 | 1043 ft | 13 kts | 90° |
| 2026-05-05 16:56 | 33.63656 | -84.42227 | 1043 ft | 14 kts | 90° |
| 2026-05-05 16:56 | 33.63655 | -84.42103 | 1043 ft | 16 kts | 90° |
| 2026-05-05 16:56 | 33.63656 | -84.41966 | 1043 ft | 17 kts | 90° |
| 2026-05-05 16:56 | 33.63656 | -84.41818 | 1043 ft | 18 kts | 90° |
| 2026-05-05 16:57 | 33.63656 | -84.41660 | 1043 ft | 19 kts | 90° |
| 2026-05-05 16:57 | 33.63656 | -84.41495 | 1042 ft | 21 kts | 90° |
| 2026-05-05 16:57 | 33.63655 | -84.41320 | 1042 ft | 21 kts | 90° |
| 2026-05-05 16:57 | 33.63655 | -84.41140 | 1043 ft | 22 kts | 90° |
| 2026-05-05 16:58 | 33.63657 | -84.40956 | 1043 ft | 22 kts | 89° |
| 2026-05-05 16:58 | 33.63651 | -84.40790 | 1043 ft | 12 kts | 115° |
| 2026-05-05 16:58 | 33.63584 | -84.40749 | 1044 ft | 11 kts | 177° |
| 2026-05-05 16:58 | 33.63504 | -84.40750 | 1043 ft | 11 kts | 186° |
| 2026-05-05 16:59 | 33.63476 | -84.40777 | 1043 ft | 5 kts | 245° |
| 2026-05-05 16:59 | 33.63471 | -84.40870 | 1044 ft | 18 kts | 270° |
| 2026-05-05 16:59 | 33.63471 | -84.41327 | 1042 ft | 109 kts | 270° |
| 2026-05-05 16:59 | 33.63491 | -84.42590 | 1212 ft | 181 kts | 264° |
| 2026-05-05 17:00 | 33.63470 | -84.44147 | 2260 ft | 179 kts | 266° |
| 2026-05-05 17:00 | 33.63513 | -84.45512 | 3982 ft | 161 kts | 269° |
| 2026-05-05 17:00 | 33.63575 | -84.46967 | 4859 ft | 197 kts | 269° |
| 2026-05-05 17:00 | 33.63630 | -84.48818 | 5025 ft | 244 kts | 269° |
| 2026-05-05 17:01 | 33.63686 | -84.50974 | 5639 ft | 264 kts | 269° |
| 2026-05-05 17:01 | 33.63744 | -84.53187 | 6813 ft | 268 kts | 269° |
| 2026-05-05 17:01 | 33.63750 | -84.53414 | 6929 ft | 269 kts | 269° |
| 2026-05-05 17:01 | 33.63813 | -84.55648 | 8037 ft | 273 kts | 269° |
| 2026-05-05 17:02 | 33.63877 | -84.57966 | 8926 ft | 287 kts | 269° |
| 2026-05-05 17:02 | 33.63943 | -84.60344 | 9322 ft | 285 kts | 269° |
| 2026-05-05 17:02 | 33.64009 | -84.62708 | 10506 ft | 283 kts | 269° |
| 2026-05-05 17:02 | 33.64064 | -84.65074 | 11594 ft | 285 kts | 267° |
| 2026-05-05 17:03 | 33.63573 | -84.67353 | 12631 ft | 284 kts | 239° |
| 2026-05-05 17:03 | 33.62187 | -84.69040 | 13630 ft | 290 kts | 213° |
| 2026-05-05 17:03 | 33.60305 | -84.70001 | 14556 ft | 299 kts | 200° |
| 2026-05-05 17:03 | 33.58722 | -84.70596 | 15311 ft | 303 kts | 200° |
| 2026-05-05 17:04 | 33.58093 | -84.70808 | 15589 ft | 306 kts | 197° |
| 2026-05-05 17:04 | 33.55988 | -84.71110 | 16502 ft | 317 kts | 181° |
| 2026-05-05 17:04 | 33.53765 | -84.70699 | 17430 ft | 328 kts | 169° |
| 2026-05-05 17:04 | 33.51541 | -84.69906 | 18301 ft | 337 kts | 166° |
| 2026-05-05 17:05 | 33.49287 | -84.69020 | 19183 ft | 344 kts | 166° |
| 2026-05-05 17:05 | 33.46993 | -84.68129 | 20043 ft | 350 kts | 166° |
| 2026-05-05 17:05 | 33.44643 | -84.67378 | 20858 ft | 355 kts | 172° |
| 2026-05-05 17:05 | 33.42210 | -84.66742 | 21644 ft | 363 kts | 168° |
| 2026-05-05 17:06 | 33.39742 | -84.65741 | 22006 ft | 388 kts | 162° |
| 2026-05-05 17:06 | 33.37172 | -84.64433 | 22145 ft | 414 kts | 159° |
| 2026-05-05 17:06 | 33.34489 | -84.62951 | 22277 ft | 436 kts | 159° |
| 2026-05-05 17:06 | 33.31684 | -84.61378 | 22617 ft | 450 kts | 158° |
| 2026-05-05 17:07 | 33.28838 | -84.59780 | 23293 ft | 455 kts | 158° |
| 2026-05-05 17:07 | 33.25983 | -84.58189 | 23914 ft | 461 kts | 159° |
| 2026-05-05 17:07 | 33.23050 | -84.56570 | 24532 ft | 467 kts | 159° |
| 2026-05-05 17:07 | 33.20070 | -84.54945 | 25080 ft | 474 kts | 159° |
| 2026-05-05 17:08 | 33.17042 | -84.53301 | 25625 ft | 481 kts | 159° |
| 2026-05-05 17:08 | 33.13975 | -84.51638 | 26174 ft | 487 kts | 159° |
| 2026-05-05 17:08 | 33.11104 | -84.50084 | 26642 ft | 493 kts | 160° |
| 2026-05-05 17:08 | 33.08321 | -84.48578 | 27077 ft | 499 kts | 159° |
| 2026-05-05 17:09 | 33.05136 | -84.46855 | 27580 ft | 506 kts | 160° |
| 2026-05-05 17:09 | 33.01913 | -84.45115 | 28092 ft | 511 kts | 160° |
| 2026-05-05 17:09 | 32.99755 | -84.43953 | 28373 ft | 515 kts | 160° |
| 2026-05-05 17:09 | 32.96416 | -84.42418 | 28756 ft | 515 kts | 169° |
| 2026-05-05 17:10 | 32.91744 | -84.41521 | 29384 ft | 511 kts | 183° |
| 2026-05-05 17:10 | 32.88187 | -84.41434 | 29804 ft | 512 kts | 188° |
| 2026-05-05 17:10 | 32.85773 | -84.41489 | 30089 ft | 515 kts | 188° |
| 2026-05-05 17:10 | 32.82219 | -84.41603 | 30504 ft | 521 kts | 189° |
| 2026-05-05 17:11 | 32.78564 | -84.41680 | 31033 ft | 525 kts | 188° |
| 2026-05-05 17:11 | 32.74905 | -84.41689 | 31623 ft | 527 kts | 187° |
| 2026-05-05 17:11 | 32.71231 | -84.41647 | 32156 ft | 529 kts | 187° |
| 2026-05-05 17:11 | 32.67544 | -84.41579 | 32664 ft | 531 kts | 188° |
| 2026-05-05 17:12 | 32.63843 | -84.41499 | 33172 ft | 533 kts | 188° |
| 2026-05-05 17:12 | 32.60134 | -84.41416 | 33692 ft | 533 kts | 189° |
| 2026-05-05 17:12 | 32.56423 | -84.41336 | 34206 ft | 534 kts | 189° |
| 2026-05-05 17:12 | 32.52705 | -84.41259 | 34672 ft | 534 kts | 189° |
| 2026-05-05 17:13 | 32.48980 | -84.41184 | 35186 ft | 534 kts | 189° |
| 2026-05-05 17:13 | 32.45319 | -84.41107 | 35686 ft | 532 kts | 189° |
| 2026-05-05 17:13 | 32.41641 | -84.41029 | 36222 ft | 530 kts | 190° |
| 2026-05-05 17:13 | 32.37949 | -84.40950 | 36658 ft | 530 kts | 190° |
| 2026-05-05 17:14 | 32.34271 | -84.40874 | 37138 ft | 527 kts | 190° |
| 2026-05-05 17:14 | 32.30610 | -84.40801 | 37621 ft | 525 kts | 190° |
| 2026-05-05 17:14 | 32.26959 | -84.40728 | 38107 ft | 522 kts | 190° |
| 2026-05-05 17:14 | 32.23332 | -84.40654 | 38607 ft | 518 kts | 191° |
| 2026-05-05 17:15 | 32.19725 | -84.40580 | 38985 ft | 517 kts | 191° |
| 2026-05-05 17:15 | 32.16129 | -84.40509 | 39360 ft | 516 kts | 191° |
| 2026-05-05 17:15 | 32.12578 | -84.40439 | 39730 ft | 514 kts | 191° |
| 2026-05-05 17:15 | 32.08998 | -84.40368 | 40004 ft | 515 kts | 190° |
| 2026-05-05 17:16 | 32.01757 | -84.40241 | 40081 ft | 526 kts | 190° |
| 2026-05-05 17:16 | 31.94436 | -84.40093 | 40087 ft | 524 kts | 189° |
| 2026-05-05 17:17 | 31.87200 | -84.39938 | 40091 ft | 522 kts | 190° |
| 2026-05-05 17:17 | 31.79930 | -84.39793 | 40100 ft | 523 kts | 190° |
| 2026-05-05 17:18 | 31.72646 | -84.39650 | 40100 ft | 523 kts | 190° |
| 2026-05-05 17:18 | 31.65354 | -84.39469 | 40098 ft | 527 kts | 186° |
| 2026-05-05 17:19 | 31.57993 | -84.38172 | 40101 ft | 540 kts | 176° |
| 2026-05-05 17:19 | 31.50694 | -84.36174 | 40106 ft | 543 kts | 175° |
| 2026-05-05 17:20 | 31.43339 | -84.34162 | 40109 ft | 541 kts | 176° |
| 2026-05-05 17:20 | 31.35980 | -84.32261 | 40105 ft | 541 kts | 176° |
| 2026-05-05 17:21 | 31.28641 | -84.30409 | 40101 ft | 540 kts | 176° |
| 2026-05-05 17:22 | 31.17616 | -84.27630 | 40102 ft | 540 kts | 176° |
| 2026-05-05 17:22 | 31.10563 | -84.25850 | 40100 ft | 539 kts | 176° |
| 2026-05-05 17:23 | 31.03222 | -84.23999 | 40094 ft | 539 kts | 176° |
| 2026-05-05 17:23 | 30.95885 | -84.22152 | 40097 ft | 538 kts | 176° |
| 2026-05-05 17:24 | 30.88558 | -84.20312 | 40100 ft | 539 kts | 176° |
| 2026-05-05 17:24 | 30.81258 | -84.18485 | 40101 ft | 539 kts | 176° |
| 2026-05-05 17:25 | 30.73922 | -84.16653 | 40100 ft | 539 kts | 176° |
| 2026-05-05 17:25 | 30.66581 | -84.14817 | 40101 ft | 539 kts | 176° |
| 2026-05-05 17:26 | 30.59277 | -84.12993 | 40100 ft | 539 kts | 176° |
| 2026-05-05 17:26 | 30.52193 | -84.11226 | 40102 ft | 539 kts | 176° |
| 2026-05-05 17:27 | 30.44915 | -84.09414 | 40100 ft | 539 kts | 176° |
| 2026-05-05 17:27 | 30.37590 | -84.07505 | 40097 ft | 544 kts | 170° |
| 2026-05-05 17:28 | 30.30608 | -84.03855 | 40093 ft | 559 kts | 154° |
| 2026-05-05 17:28 | 30.24311 | -83.99368 | 40099 ft | 561 kts | 152° |
| 2026-05-05 17:29 | 30.18772 | -83.95422 | 40100 ft | 560 kts | 153° |
| 2026-05-05 17:29 | 30.13738 | -83.91986 | 40100 ft | 559 kts | 154° |
| 2026-05-05 17:30 | 30.10002 | -83.89494 | 40100 ft | 559 kts | 155° |
| 2026-05-05 17:30 | 30.05876 | -83.86766 | 40100 ft | 559 kts | 155° |
| 2026-05-05 17:31 | 30.02077 | -83.84258 | 40100 ft | 559 kts | 155° |
| 2026-05-05 17:31 | 29.97433 | -83.81189 | 40100 ft | 559 kts | 155° |
| 2026-05-05 17:32 | 29.92592 | -83.77986 | 40100 ft | 559 kts | 155° |
| 2026-05-05 17:32 | 29.87551 | -83.74650 | 40100 ft | 559 kts | 155° |
| 2026-05-05 17:33 | 29.82494 | -83.71308 | 40100 ft | 559 kts | 155° |
| 2026-05-05 17:33 | 29.77834 | -83.68239 | 40097 ft | 559 kts | 155° |
| 2026-05-05 17:34 | 29.73311 | -83.65264 | 40091 ft | 559 kts | 155° |
| 2026-05-05 17:34 | 29.68891 | -83.62357 | 40091 ft | 559 kts | 154° |
| 2026-05-05 17:35 | 29.64357 | -83.59374 | 40091 ft | 558 kts | 154° |
| 2026-05-05 17:35 | 29.59975 | -83.56493 | 40097 ft | 558 kts | 154° |
| 2026-05-05 17:36 | 29.55311 | -83.53431 | 40092 ft | 558 kts | 155° |
| 2026-05-05 17:36 | 29.50973 | -83.50585 | 40091 ft | 558 kts | 155° |
| 2026-05-05 17:37 | 29.45722 | -83.47145 | 40091 ft | 559 kts | 154° |
| 2026-05-05 17:37 | 29.39704 | -83.43207 | 40091 ft | 559 kts | 154° |
| 2026-05-05 17:38 | 29.32945 | -83.38790 | 40088 ft | 558 kts | 154° |
| 2026-05-05 17:38 | 29.26088 | -83.34640 | 40086 ft | 554 kts | 160° |
| 2026-05-05 17:39 | 29.19100 | -83.31050 | 40091 ft | 553 kts | 162° |
| 2026-05-05 17:39 | 29.12097 | -83.27556 | 40091 ft | 552 kts | 161° |
| 2026-05-05 17:40 | 29.05052 | -83.23986 | 40091 ft | 552 kts | 161° |
| 2026-05-05 17:40 | 28.98031 | -83.20395 | 40091 ft | 553 kts | 161° |
| 2026-05-05 17:41 | 28.91015 | -83.16806 | 40091 ft | 553 kts | 161° |
| 2026-05-05 17:41 | 28.84001 | -83.13227 | 40091 ft | 552 kts | 161° |
| 2026-05-05 17:42 | 28.76996 | -83.09661 | 40091 ft | 552 kts | 161° |
| 2026-05-05 17:42 | 28.70008 | -83.06109 | 40091 ft | 552 kts | 161° |
| 2026-05-05 17:43 | 28.62975 | -83.02539 | 40083 ft | 552 kts | 161° |
| 2026-05-05 17:43 | 28.55973 | -82.98989 | 40082 ft | 552 kts | 161° |
| 2026-05-05 17:44 | 28.48938 | -82.95437 | 40082 ft | 553 kts | 161° |
| 2026-05-05 17:44 | 28.41904 | -82.91892 | 40083 ft | 553 kts | 160° |
| 2026-05-05 17:45 | 28.34918 | -82.88368 | 40083 ft | 552 kts | 160° |
| 2026-05-05 17:45 | 28.27892 | -82.84826 | 40082 ft | 552 kts | 160° |
| 2026-05-05 17:46 | 28.20867 | -82.81291 | 40081 ft | 552 kts | 161° |
| 2026-05-05 17:46 | 28.13833 | -82.77757 | 40075 ft | 553 kts | 160° |
| 2026-05-05 17:47 | 28.06843 | -82.74250 | 40078 ft | 554 kts | 160° |
| 2026-05-05 17:47 | 27.99693 | -82.71273 | 40061 ft | 545 kts | 173° |
| 2026-05-05 17:48 | 27.92321 | -82.69713 | 40079 ft | 537 kts | 178° |
| 2026-05-05 17:48 | 27.84931 | -82.68452 | 40081 ft | 537 kts | 178° |
| 2026-05-05 17:49 | 27.77544 | -82.67074 | 40064 ft | 538 kts | 177° |
| 2026-05-05 17:49 | 27.70171 | -82.65612 | 40076 ft | 537 kts | 176° |
| 2026-05-05 17:50 | 27.62804 | -82.64136 | 40077 ft | 537 kts | 176° |
| 2026-05-05 17:50 | 27.55437 | -82.62668 | 40060 ft | 537 kts | 177° |
| 2026-05-05 17:51 | 27.48089 | -82.60956 | 40075 ft | 542 kts | 172° |
| 2026-05-05 17:51 | 27.40837 | -82.58803 | 40072 ft | 543 kts | 171° |
| 2026-05-05 17:52 | 27.33553 | -82.56568 | 40076 ft | 542 kts | 171° |
| 2026-05-05 17:52 | 27.26277 | -82.54384 | 40077 ft | 541 kts | 171° |
| 2026-05-05 17:53 | 27.19001 | -82.52230 | 40058 ft | 540 kts | 171° |
| 2026-05-05 17:53 | 27.11787 | -82.50102 | 40053 ft | 541 kts | 171° |
| 2026-05-05 17:54 | 27.04500 | -82.47953 | 40049 ft | 540 kts | 171° |
| 2026-05-05 17:54 | 26.97246 | -82.45813 | 40052 ft | 539 kts | 171° |
| 2026-05-05 17:54 | 26.93643 | -82.44734 | 39718 ft | 531 kts | 168° |
| 2026-05-05 17:55 | 26.90193 | -82.43259 | 39274 ft | 533 kts | 156° |
| 2026-05-05 17:55 | 26.87039 | -82.41073 | 38741 ft | 533 kts | 143° |
| 2026-05-05 17:55 | 26.84227 | -82.38381 | 38151 ft | 531 kts | 136° |
| 2026-05-05 17:55 | 26.81557 | -82.35492 | 37558 ft | 531 kts | 135° |
| 2026-05-05 17:56 | 26.78908 | -82.32600 | 36979 ft | 530 kts | 136° |
| 2026-05-05 17:56 | 26.76257 | -82.29808 | 36416 ft | 530 kts | 137° |
| 2026-05-05 17:56 | 26.73482 | -82.27005 | 35818 ft | 529 kts | 139° |
| 2026-05-05 17:56 | 26.70750 | -82.24329 | 35248 ft | 530 kts | 140° |
| 2026-05-05 17:57 | 26.67959 | -82.21641 | 34666 ft | 532 kts | 140° |
| 2026-05-05 17:57 | 26.65139 | -82.18949 | 34032 ft | 535 kts | 140° |
| 2026-05-05 17:57 | 26.62305 | -82.16247 | 33403 ft | 536 kts | 140° |
| 2026-05-05 17:57 | 26.59467 | -82.13534 | 32771 ft | 536 kts | 140° |
| 2026-05-05 17:58 | 26.56637 | -82.10823 | 32145 ft | 534 kts | 140° |
| 2026-05-05 17:58 | 26.53831 | -82.08126 | 31509 ft | 533 kts | 140° |
| 2026-05-05 17:58 | 26.51061 | -82.05399 | 30859 ft | 531 kts | 139° |
| 2026-05-05 17:58 | 26.48318 | -82.02644 | 30215 ft | 530 kts | 139° |
| 2026-05-05 17:59 | 26.45621 | -81.99907 | 29561 ft | 528 kts | 139° |
| 2026-05-05 17:59 | 26.42910 | -81.97148 | 28929 ft | 527 kts | 139° |
| 2026-05-05 17:59 | 26.40234 | -81.94426 | 28300 ft | 526 kts | 139° |
| 2026-05-05 17:59 | 26.37521 | -81.91673 | 27658 ft | 527 kts | 139° |
| 2026-05-05 18:00 | 26.34808 | -81.88925 | 27006 ft | 526 kts | 140° |
| 2026-05-05 18:00 | 26.32109 | -81.86198 | 26454 ft | 520 kts | 140° |
| 2026-05-05 18:00 | 26.29442 | -81.83504 | 26148 ft | 514 kts | 140° |
| 2026-05-05 18:00 | 26.27710 | -81.81755 | 26051 ft | 500 kts | 140° |
| 2026-05-05 18:01 | 26.25198 | -81.79211 | 25756 ft | 482 kts | 139° |
| 2026-05-05 18:01 | 26.23074 | -81.76592 | 25181 ft | 475 kts | 127° |
| 2026-05-05 18:01 | 26.21353 | -81.73477 | 24469 ft | 469 kts | 118° |
| 2026-05-05 18:01 | 26.19939 | -81.70230 | 23773 ft | 464 kts | 114° |
| 2026-05-05 18:02 | 26.18641 | -81.66967 | 23092 ft | 458 kts | 114° |
| 2026-05-05 18:02 | 26.17366 | -81.63741 | 22425 ft | 453 kts | 114° |
| 2026-05-05 18:02 | 26.16080 | -81.60565 | 21754 ft | 447 kts | 114° |
| 2026-05-05 18:02 | 26.14776 | -81.57444 | 21103 ft | 442 kts | 115° |
| 2026-05-05 18:03 | 26.13467 | -81.54371 | 20455 ft | 437 kts | 115° |
| 2026-05-05 18:03 | 26.12156 | -81.51332 | 19818 ft | 432 kts | 115° |
| 2026-05-05 18:03 | 26.10856 | -81.48337 | 19161 ft | 428 kts | 115° |
| 2026-05-05 18:03 | 26.09574 | -81.45392 | 18524 ft | 419 kts | 115° |
| 2026-05-05 18:04 | 26.08316 | -81.42503 | 17910 ft | 413 kts | 115° |
| 2026-05-05 18:04 | 26.07078 | -81.39663 | 17307 ft | 407 kts | 115° |
| 2026-05-05 18:04 | 26.05866 | -81.36882 | 16720 ft | 402 kts | 115° |
| 2026-05-05 18:04 | 26.04654 | -81.34104 | 16135 ft | 397 kts | 115° |
| 2026-05-05 18:05 | 26.03455 | -81.31357 | 15542 ft | 392 kts | 116° |
| 2026-05-05 18:05 | 26.02273 | -81.28650 | 14983 ft | 386 kts | 116° |
| 2026-05-05 18:05 | 26.01106 | -81.25979 | 14419 ft | 382 kts | 116° |
| 2026-05-05 18:05 | 25.99959 | -81.23350 | 13871 ft | 377 kts | 116° |
| 2026-05-05 18:06 | 25.98817 | -81.20730 | 13315 ft | 372 kts | 116° |
| 2026-05-05 18:06 | 25.98072 | -81.19021 | 12961 ft | 370 kts | 117° |
| 2026-05-05 18:06 | 25.96581 | -81.15606 | 12289 ft | 363 kts | 117° |
| 2026-05-05 18:06 | 25.95483 | -81.13096 | 11922 ft | 360 kts | 117° |
| 2026-05-05 18:07 | 25.94391 | -81.10609 | 11503 ft | 358 kts | 117° |
| 2026-05-05 18:07 | 25.93301 | -81.08128 | 10872 ft | 353 kts | 117° |
| 2026-05-05 18:07 | 25.92236 | -81.05700 | 10547 ft | 345 kts | 117° |
| 2026-05-05 18:07 | 25.91261 | -81.03399 | 10415 ft | 322 kts | 115° |
| 2026-05-05 18:08 | 25.90387 | -81.01183 | 10258 ft | 304 kts | 114° |
| 2026-05-05 18:08 | 25.89555 | -80.99024 | 9930 ft | 304 kts | 114° |
| 2026-05-05 18:08 | 25.88733 | -80.96879 | 9532 ft | 300 kts | 114° |
| 2026-05-05 18:08 | 25.87920 | -80.94761 | 9138 ft | 295 kts | 114° |
| 2026-05-05 18:09 | 25.87118 | -80.92678 | 8969 ft | 292 kts | 114° |
| 2026-05-05 18:09 | 25.86321 | -80.90606 | 8889 ft | 292 kts | 114° |
| 2026-05-05 18:09 | 25.85526 | -80.88529 | 8823 ft | 293 kts | 114° |
| 2026-05-05 18:09 | 25.84730 | -80.86449 | 8776 ft | 293 kts | 114° |
| 2026-05-05 18:10 | 25.83927 | -80.84346 | 8424 ft | 293 kts | 114° |
| 2026-05-05 18:10 | 25.83144 | -80.82307 | 7998 ft | 290 kts | 114° |
| 2026-05-05 18:10 | 25.82350 | -80.80249 | 7567 ft | 288 kts | 115° |
| 2026-05-05 18:10 | 25.81566 | -80.78217 | 7151 ft | 286 kts | 115° |
| 2026-05-05 18:11 | 25.80788 | -80.76192 | 6729 ft | 283 kts | 114° |
| 2026-05-05 18:11 | 25.80022 | -80.74191 | 6363 ft | 281 kts | 114° |
| 2026-05-05 18:11 | 25.79253 | -80.72188 | 5992 ft | 280 kts | 114° |
| 2026-05-05 18:11 | 25.78494 | -80.70212 | 5624 ft | 278 kts | 114° |
| 2026-05-05 18:12 | 25.77740 | -80.68242 | 5246 ft | 275 kts | 114° |
| 2026-05-05 18:12 | 25.77266 | -80.66231 | 4872 ft | 275 kts | 96° |
| 2026-05-05 18:12 | 25.77229 | -80.64118 | 4526 ft | 273 kts | 89° |
| 2026-05-05 18:12 | 25.77309 | -80.62032 | 4185 ft | 267 kts | 87° |
| 2026-05-05 18:13 | 25.77412 | -80.60016 | 3994 ft | 253 kts | 87° |
| 2026-05-05 18:13 | 25.77506 | -80.58131 | 3985 ft | 240 kts | 88° |
| 2026-05-05 18:13 | 25.77589 | -80.56271 | 3991 ft | 242 kts | 88° |
| 2026-05-05 18:13 | 25.77665 | -80.54409 | 3991 ft | 241 kts | 88° |
| 2026-05-05 18:14 | 25.77747 | -80.52526 | 3769 ft | 243 kts | 88° |
| 2026-05-05 18:14 | 25.77825 | -80.50720 | 3451 ft | 231 kts | 88° |
| 2026-05-05 18:14 | 25.77898 | -80.49003 | 3138 ft | 216 kts | 88° |
| 2026-05-05 18:14 | 25.77963 | -80.47345 | 2845 ft | 215 kts | 88° |
| 2026-05-05 18:15 | 25.78033 | -80.45698 | 2577 ft | 214 kts | 88° |
| 2026-05-05 18:15 | 25.78100 | -80.44060 | 2301 ft | 210 kts | 88° |
| 2026-05-05 18:15 | 25.78163 | -80.42530 | 2002 ft | 184 kts | 89° |
| 2026-05-05 18:15 | 25.78219 | -80.41179 | 1799 ft | 164 kts | 88° |
| 2026-05-05 18:16 | 25.78268 | -80.40005 | 1540 ft | 144 kts | 88° |
| 2026-05-05 18:16 | 25.78307 | -80.38913 | 1388 ft | 140 kts | 88° |
| 2026-05-05 18:16 | 25.78352 | -80.37828 | 1228 ft | 139 kts | 86° |
| 2026-05-05 18:16 | 25.78394 | -80.36767 | 1006 ft | 137 kts | 87° |
| 2026-05-05 18:17 | 25.78436 | -80.35719 | 841 ft | 138 kts | 86° |
| 2026-05-05 18:17 | 25.78497 | -80.34658 | 648 ft | 137 kts | 86° |
| 2026-05-05 18:17 | 25.78534 | -80.33599 | 509 ft | 139 kts | 87° |
| 2026-05-05 18:17 | 25.78577 | -80.32532 | 292 ft | 137 kts | 87° |
| 2026-05-05 18:18 | 25.78613 | -80.31468 | 100 ft | 137 kts | 87° |
| 2026-05-05 18:18 | 25.78653 | -80.30451 | 22 ft | 121 kts | 86° |
| 2026-05-05 18:18 | 25.78684 | -80.29698 | 26 ft | 76 kts | 88° |
| 2026-05-05 18:18 | 25.78703 | -80.29219 | 24 ft | 54 kts | 87° |
| 2026-05-05 18:19 | 25.78722 | -80.28870 | 25 ft | 27 kts | 84° |
| 2026-05-05 18:19 | 25.78778 | -80.28724 | 23 ft | 14 kts | 49° |
| 2026-05-05 18:19 | 25.78840 | -80.28660 | 23 ft | 11 kts | 44° |
| 2026-05-05 18:19 | 25.78871 | -80.28592 | 26 ft | 10 kts | 77° |
| 2026-05-05 18:20 | 25.78879 | -80.28519 | 23 ft | 9 kts | 84° |
| 2026-05-05 18:20 | 25.78880 | -80.28452 | 23 ft | 9 kts | 89° |
| 2026-05-05 18:20 | 25.78882 | -80.28385 | 23 ft | 9 kts | 87° |
| 2026-05-05 18:20 | 25.78885 | -80.28316 | 25 ft | 9 kts | 86° |
| 2026-05-05 18:21 | 25.78889 | -80.28245 | 23 ft | 9 kts | 87° |
| 2026-05-05 18:21 | 25.78893 | -80.28173 | 23 ft | 9 kts | 84° |
| 2026-05-05 18:21 | 25.78900 | -80.28104 | 26 ft | 9 kts | 83° |
| 2026-05-05 18:21 | 25.78903 | -80.28030 | 24 ft | 10 kts | 97° |
| 2026-05-05 18:22 | 25.78876 | -80.27953 | 24 ft | 11 kts | 110° |
| 2026-05-05 18:22 | 25.78873 | -80.27861 | 23 ft | 13 kts | 88° |
| 2026-05-05 18:22 | 25.78877 | -80.27753 | 23 ft | 15 kts | 88° |
| 2026-05-05 18:22 | 25.78886 | -80.27640 | 26 ft | 14 kts | 81° |
| 2026-05-05 18:23 | 25.78903 | -80.27545 | 23 ft | 8 kts | 72° |
| 2026-05-05 18:23 | 25.78938 | -80.27515 | 27 ft | 6 kts | 17° |
| 2026-05-05 18:23 | 25.78980 | -80.27511 | 25 ft | 6 kts | 0° |
| 2026-05-05 18:23 | 25.79026 | -80.27512 | 22 ft | 7 kts | 358° |
| 2026-05-05 18:24 | 25.79074 | -80.27513 | 22 ft | 7 kts | 358° |
| 2026-05-05 18:24 | 25.79107 | -80.27514 | 23 ft | 4 kts | 358° |
| 2026-05-05 18:24 | 25.79126 | -80.27516 | 23 ft | 0 kts | 348° |
| 2026-05-05 18:24 | 25.79128 | -80.27518 | 24 ft | 1 kts | 336° |
| 2026-05-05 18:25 | 25.79130 | -80.27529 | 23 ft | 1 kts | 283° |
| 2026-05-05 18:25 | 25.79126 | -80.27537 | 24 ft | 4 kts | 249° |
| 2026-05-05 18:25 | 25.79122 | -80.27573 | 23 ft | 3 kts | 266° |
| 2026-05-05 18:25 | 25.79120 | -80.27600 | 23 ft | 3 kts | 267° |
| 2026-05-05 18:26 | 25.79120 | -80.27603 | 23 ft | 0 kts | 267° |